sensor_id;sensor_type;location;lat;lon;timestamp;P1;durP1;ratioP1;P2;durP2;ratioP2
79702;SDS011;69172;52.352;5.006;2023-09-18T00:00:25;30.15;;;20.85;;
79702;SDS011;69172;52.352;5.006;2023-09-18T00:02:51;29.65;;;19.90;;
79702;SDS011;69172;52.352;5.006;2023-09-18T00:05:16;29.17;;;20.05;;
79702;SDS011;69172;52.352;5.006;2023-09-18T00:07:42;29.35;;;19.95;;
79702;SDS011;69172;52.352;5.006;2023-09-18T00:10:09;28.85;;;19.30;;
79702;SDS011;69172;52.352;5.006;2023-09-18T00:12:37;28.42;;;19.73;;
79702;SDS011;69172;52.352;5.006;2023-09-18T00:15:04;29.45;;;19.38;;
79702;SDS011;69172;52.352;5.006;2023-09-18T00:17:30;31.30;;;19.85;;
79702;SDS011;69172;52.352;5.006;2023-09-18T00:19:55;25.08;;;18.08;;
79702;SDS011;69172;52.352;5.006;2023-09-18T00:22:22;26.88;;;19.27;;
79702;SDS011;69172;52.352;5.006;2023-09-18T00:24:49;26.90;;;18.60;;
79702;SDS011;69172;52.352;5.006;2023-09-18T00:27:15;27.17;;;18.05;;
79702;SDS011;69172;52.352;5.006;2023-09-18T00:29:41;29.20;;;19.08;;
79702;SDS011;69172;52.352;5.006;2023-09-18T00:32:07;28.73;;;19.23;;
79702;SDS011;69172;52.352;5.006;2023-09-18T00:34:32;27.60;;;18.58;;
79702;SDS011;69172;52.352;5.006;2023-09-18T00:36:58;26.55;;;18.02;;
79702;SDS011;69172;52.352;5.006;2023-09-18T00:39:27;26.25;;;18.58;;
79702;SDS011;69172;52.352;5.006;2023-09-18T00:41:52;24.42;;;17.92;;
79702;SDS011;69172;52.352;5.006;2023-09-18T00:44:22;26.50;;;19.25;;
79702;SDS011;69172;52.352;5.006;2023-09-18T00:46:53;24.42;;;17.67;;
79702;SDS011;69172;52.352;5.006;2023-09-18T00:49:20;24.88;;;18.00;;
79702;SDS011;69172;52.352;5.006;2023-09-18T00:51:47;28.02;;;18.20;;
79702;SDS011;69172;52.352;5.006;2023-09-18T00:54:14;25.85;;;17.45;;
79702;SDS011;69172;52.352;5.006;2023-09-18T00:56:44;29.23;;;18.98;;
79702;SDS011;69172;52.352;5.006;2023-09-18T00:59:13;24.13;;;16.55;;
79702;SDS011;69172;52.352;5.006;2023-09-18T01:01:40;23.92;;;15.90;;
79702;SDS011;69172;52.352;5.006;2023-09-18T01:04:08;24.70;;;17.70;;
79702;SDS011;69172;52.352;5.006;2023-09-18T01:06:34;24.95;;;17.33;;
79702;SDS011;69172;52.352;5.006;2023-09-18T01:09:02;27.27;;;17.95;;
79702;SDS011;69172;52.352;5.006;2023-09-18T01:11:31;25.80;;;16.95;;
79702;SDS011;69172;52.352;5.006;2023-09-18T01:14:10;26.15;;;18.23;;
79702;SDS011;69172;52.352;5.006;2023-09-18T01:16:46;25.05;;;16.90;;
79702;SDS011;69172;52.352;5.006;2023-09-18T01:19:15;24.13;;;17.95;;
79702;SDS011;69172;52.352;5.006;2023-09-18T01:24:17;27.48;;;17.08;;
79702;SDS011;69172;52.352;5.006;2023-09-18T01:26:42;23.70;;;17.27;;
79702;SDS011;69172;52.352;5.006;2023-09-18T01:29:07;23.08;;;17.02;;
79702;SDS011;69172;52.352;5.006;2023-09-18T01:31:33;23.55;;;16.02;;
79702;SDS011;69172;52.352;5.006;2023-09-18T01:33:58;22.65;;;14.90;;
79702;SDS011;69172;52.352;5.006;2023-09-18T01:36:25;22.52;;;15.13;;
79702;SDS011;69172;52.352;5.006;2023-09-18T01:38:50;21.70;;;15.68;;
79702;SDS011;69172;52.352;5.006;2023-09-18T01:41:17;26.08;;;15.95;;
79702;SDS011;69172;52.352;5.006;2023-09-18T01:43:43;21.20;;;15.50;;
79702;SDS011;69172;52.352;5.006;2023-09-18T01:46:08;21.15;;;14.93;;
79702;SDS011;69172;52.352;5.006;2023-09-18T01:48:34;23.77;;;15.13;;
79702;SDS011;69172;52.352;5.006;2023-09-18T01:51:00;22.80;;;15.27;;
79702;SDS011;69172;52.352;5.006;2023-09-18T01:53:25;22.38;;;14.50;;
79702;SDS011;69172;52.352;5.006;2023-09-18T01:55:51;20.80;;;15.45;;
79702;SDS011;69172;52.352;5.006;2023-09-18T01:58:17;24.27;;;14.38;;
79702;SDS011;69172;52.352;5.006;2023-09-18T02:00:43;23.35;;;13.98;;
79702;SDS011;69172;52.352;5.006;2023-09-18T02:03:08;19.55;;;13.65;;
79702;SDS011;69172;52.352;5.006;2023-09-18T02:05:33;19.70;;;13.25;;
79702;SDS011;69172;52.352;5.006;2023-09-18T02:07:59;20.35;;;14.55;;
79702;SDS011;69172;52.352;5.006;2023-09-18T02:10:25;24.52;;;15.30;;
79702;SDS011;69172;52.352;5.006;2023-09-18T02:12:50;20.42;;;14.25;;
79702;SDS011;69172;52.352;5.006;2023-09-18T02:15:16;20.10;;;14.20;;
79702;SDS011;69172;52.352;5.006;2023-09-18T02:17:41;22.15;;;15.38;;
79702;SDS011;69172;52.352;5.006;2023-09-18T02:20:07;20.15;;;14.68;;
79702;SDS011;69172;52.352;5.006;2023-09-18T02:22:36;21.33;;;15.18;;
79702;SDS011;69172;52.352;5.006;2023-09-18T02:25:05;19.15;;;14.35;;
79702;SDS011;69172;52.352;5.006;2023-09-18T02:27:31;22.63;;;14.85;;
79702;SDS011;69172;52.352;5.006;2023-09-18T02:29:56;21.58;;;15.00;;
79702;SDS011;69172;52.352;5.006;2023-09-18T02:32:25;21.38;;;14.95;;
79702;SDS011;69172;52.352;5.006;2023-09-18T02:34:50;23.17;;;15.18;;
79702;SDS011;69172;52.352;5.006;2023-09-18T02:37:17;21.17;;;14.80;;
79702;SDS011;69172;52.352;5.006;2023-09-18T02:39:42;22.25;;;15.35;;
79702;SDS011;69172;52.352;5.006;2023-09-18T02:42:07;22.77;;;14.85;;
79702;SDS011;69172;52.352;5.006;2023-09-18T02:44:33;21.60;;;14.82;;
79702;SDS011;69172;52.352;5.006;2023-09-18T02:46:58;23.05;;;14.77;;
79702;SDS011;69172;52.352;5.006;2023-09-18T02:49:25;21.92;;;14.75;;
79702;SDS011;69172;52.352;5.006;2023-09-18T02:51:50;21.90;;;15.25;;
79702;SDS011;69172;52.352;5.006;2023-09-18T02:54:15;21.13;;;15.10;;
79702;SDS011;69172;52.352;5.006;2023-09-18T02:56:41;21.37;;;14.57;;
79702;SDS011;69172;52.352;5.006;2023-09-18T02:59:08;20.38;;;14.35;;
79702;SDS011;69172;52.352;5.006;2023-09-18T03:01:34;21.42;;;14.57;;
79702;SDS011;69172;52.352;5.006;2023-09-18T03:03:59;21.45;;;14.65;;
79702;SDS011;69172;52.352;5.006;2023-09-18T03:06:26;23.58;;;15.27;;
79702;SDS011;69172;52.352;5.006;2023-09-18T03:08:53;24.00;;;15.10;;
79702;SDS011;69172;52.352;5.006;2023-09-18T03:11:18;23.88;;;15.60;;
79702;SDS011;69172;52.352;5.006;2023-09-18T03:13:44;22.85;;;15.35;;
79702;SDS011;69172;52.352;5.006;2023-09-18T03:16:14;24.73;;;15.30;;
79702;SDS011;69172;52.352;5.006;2023-09-18T03:18:39;26.48;;;15.45;;
79702;SDS011;69172;52.352;5.006;2023-09-18T03:21:05;25.50;;;16.50;;
79702;SDS011;69172;52.352;5.006;2023-09-18T03:23:30;22.25;;;15.40;;
79702;SDS011;69172;52.352;5.006;2023-09-18T03:25:55;25.92;;;15.88;;
79702;SDS011;69172;52.352;5.006;2023-09-18T03:28:21;23.10;;;15.40;;
79702;SDS011;69172;52.352;5.006;2023-09-18T03:30:46;22.88;;;16.08;;
79702;SDS011;69172;52.352;5.006;2023-09-18T03:33:12;23.27;;;15.52;;
79702;SDS011;69172;52.352;5.006;2023-09-18T03:35:48;22.88;;;15.00;;
79702;SDS011;69172;52.352;5.006;2023-09-18T03:38:16;21.67;;;15.57;;
79702;SDS011;69172;52.352;5.006;2023-09-18T03:40:42;24.65;;;16.20;;
79702;SDS011;69172;52.352;5.006;2023-09-18T03:43:09;22.98;;;16.05;;
79702;SDS011;69172;52.352;5.006;2023-09-18T03:45:35;23.10;;;16.23;;
79702;SDS011;69172;52.352;5.006;2023-09-18T03:48:00;21.33;;;14.95;;
79702;SDS011;69172;52.352;5.006;2023-09-18T03:50:26;26.13;;;16.98;;
79702;SDS011;69172;52.352;5.006;2023-09-18T03:52:59;24.52;;;17.27;;
79702;SDS011;69172;52.352;5.006;2023-09-18T03:55:31;25.17;;;16.88;;
79702;SDS011;69172;52.352;5.006;2023-09-18T03:57:59;28.42;;;17.38;;
79702;SDS011;69172;52.352;5.006;2023-09-18T04:00:25;26.88;;;17.20;;
79702;SDS011;69172;52.352;5.006;2023-09-18T04:02:51;26.95;;;18.08;;
79702;SDS011;69172;52.352;5.006;2023-09-18T04:05:16;27.08;;;16.05;;
79702;SDS011;69172;52.352;5.006;2023-09-18T04:07:42;25.65;;;16.95;;
79702;SDS011;69172;52.352;5.006;2023-09-18T04:10:11;24.95;;;16.60;;
79702;SDS011;69172;52.352;5.006;2023-09-18T04:12:42;25.52;;;17.35;;
79702;SDS011;69172;52.352;5.006;2023-09-18T04:15:09;30.48;;;18.70;;
79702;SDS011;69172;52.352;5.006;2023-09-18T04:17:34;26.65;;;18.50;;
79702;SDS011;69172;52.352;5.006;2023-09-18T04:20:00;29.30;;;19.38;;
79702;SDS011;69172;52.352;5.006;2023-09-18T04:22:25;29.13;;;19.15;;
79702;SDS011;69172;52.352;5.006;2023-09-18T04:24:50;29.73;;;18.85;;
79702;SDS011;69172;52.352;5.006;2023-09-18T04:27:15;30.65;;;19.65;;
79702;SDS011;69172;52.352;5.006;2023-09-18T04:29:41;34.03;;;20.88;;
79702;SDS011;69172;52.352;5.006;2023-09-18T04:32:06;34.72;;;21.70;;
79702;SDS011;69172;52.352;5.006;2023-09-18T04:34:32;34.50;;;20.98;;
79702;SDS011;69172;52.352;5.006;2023-09-18T04:36:58;30.48;;;19.83;;
79702;SDS011;69172;52.352;5.006;2023-09-18T04:39:24;21.92;;;13.38;;
79702;SDS011;69172;52.352;5.006;2023-09-18T04:41:49;15.30;;;7.72;;
79702;SDS011;69172;52.352;5.006;2023-09-18T04:44:15;16.92;;;9.13;;
79702;SDS011;69172;52.352;5.006;2023-09-18T04:46:42;16.80;;;8.55;;
79702;SDS011;69172;52.352;5.006;2023-09-18T04:49:07;16.85;;;9.25;;
79702;SDS011;69172;52.352;5.006;2023-09-18T04:51:38;15.90;;;9.52;;
79702;SDS011;69172;52.352;5.006;2023-09-18T04:54:04;18.65;;;9.88;;
79702;SDS011;69172;52.352;5.006;2023-09-18T04:56:30;19.27;;;11.73;;
79702;SDS011;69172;52.352;5.006;2023-09-18T04:58:55;18.95;;;11.40;;
79702;SDS011;69172;52.352;5.006;2023-09-18T05:01:20;21.75;;;12.65;;
79702;SDS011;69172;52.352;5.006;2023-09-18T05:03:46;20.20;;;12.88;;
79702;SDS011;69172;52.352;5.006;2023-09-18T05:06:13;22.88;;;13.68;;
79702;SDS011;69172;52.352;5.006;2023-09-18T05:08:51;21.35;;;13.05;;
79702;SDS011;69172;52.352;5.006;2023-09-18T05:11:18;26.10;;;13.48;;
79702;SDS011;69172;52.352;5.006;2023-09-18T05:13:43;23.25;;;13.85;;
79702;SDS011;69172;52.352;5.006;2023-09-18T05:16:09;20.00;;;14.07;;
79702;SDS011;69172;52.352;5.006;2023-09-18T05:18:34;23.33;;;15.65;;
79702;SDS011;69172;52.352;5.006;2023-09-18T05:21:06;28.20;;;16.48;;
79702;SDS011;69172;52.352;5.006;2023-09-18T05:23:32;30.83;;;19.60;;
79702;SDS011;69172;52.352;5.006;2023-09-18T05:25:57;33.58;;;19.50;;
79702;SDS011;69172;52.352;5.006;2023-09-18T05:28:24;33.53;;;19.73;;
79702;SDS011;69172;52.352;5.006;2023-09-18T05:30:49;30.55;;;18.52;;
79702;SDS011;69172;52.352;5.006;2023-09-18T05:33:14;29.67;;;19.08;;
79702;SDS011;69172;52.352;5.006;2023-09-18T05:35:42;34.25;;;20.60;;
79702;SDS011;69172;52.352;5.006;2023-09-18T05:38:12;32.33;;;19.98;;
79702;SDS011;69172;52.352;5.006;2023-09-18T05:40:40;30.63;;;19.05;;
79702;SDS011;69172;52.352;5.006;2023-09-18T05:43:06;34.45;;;19.52;;
79702;SDS011;69172;52.352;5.006;2023-09-18T05:45:32;32.80;;;20.27;;
79702;SDS011;69172;52.352;5.006;2023-09-18T05:47:59;34.22;;;19.70;;
79702;SDS011;69172;52.352;5.006;2023-09-18T05:50:32;34.40;;;20.42;;
79702;SDS011;69172;52.352;5.006;2023-09-18T05:52:59;32.58;;;19.45;;
79702;SDS011;69172;52.352;5.006;2023-09-18T05:55:28;32.03;;;20.25;;
79702;SDS011;69172;52.352;5.006;2023-09-18T05:57:57;37.38;;;19.60;;
79702;SDS011;69172;52.352;5.006;2023-09-18T06:00:24;28.02;;;17.98;;
79702;SDS011;69172;52.352;5.006;2023-09-18T06:02:50;32.88;;;17.75;;
79702;SDS011;69172;52.352;5.006;2023-09-18T06:05:19;26.98;;;16.52;;
79702;SDS011;69172;52.352;5.006;2023-09-18T06:07:48;29.25;;;16.77;;
79702;SDS011;69172;52.352;5.006;2023-09-18T06:10:14;25.70;;;15.68;;
79702;SDS011;69172;52.352;5.006;2023-09-18T06:12:40;30.02;;;16.70;;
79702;SDS011;69172;52.352;5.006;2023-09-18T06:15:06;26.88;;;16.00;;
79702;SDS011;69172;52.352;5.006;2023-09-18T06:17:37;28.35;;;15.45;;
79702;SDS011;69172;52.352;5.006;2023-09-18T06:20:04;25.13;;;15.10;;
79702;SDS011;69172;52.352;5.006;2023-09-18T06:22:31;28.42;;;15.55;;
79702;SDS011;69172;52.352;5.006;2023-09-18T06:24:58;28.02;;;16.85;;
79702;SDS011;69172;52.352;5.006;2023-09-18T06:27:23;26.63;;;16.70;;
79702;SDS011;69172;52.352;5.006;2023-09-18T06:29:49;28.50;;;16.25;;
79702;SDS011;69172;52.352;5.006;2023-09-18T06:32:15;28.55;;;17.17;;
79702;SDS011;69172;52.352;5.006;2023-09-18T06:34:40;27.52;;;17.48;;
79702;SDS011;69172;52.352;5.006;2023-09-18T06:37:08;28.45;;;15.85;;
79702;SDS011;69172;52.352;5.006;2023-09-18T06:39:37;26.23;;;16.55;;
79702;SDS011;69172;52.352;5.006;2023-09-18T06:42:09;32.00;;;16.67;;
79702;SDS011;69172;52.352;5.006;2023-09-18T06:44:36;30.27;;;17.35;;
79702;SDS011;69172;52.352;5.006;2023-09-18T06:47:02;28.75;;;17.50;;
79702;SDS011;69172;52.352;5.006;2023-09-18T06:49:28;30.40;;;17.17;;
79702;SDS011;69172;52.352;5.006;2023-09-18T06:51:53;26.75;;;16.52;;
79702;SDS011;69172;52.352;5.006;2023-09-18T06:54:21;27.27;;;16.92;;
79702;SDS011;69172;52.352;5.006;2023-09-18T06:56:46;32.67;;;17.80;;
79702;SDS011;69172;52.352;5.006;2023-09-18T06:59:13;26.63;;;16.48;;
79702;SDS011;69172;52.352;5.006;2023-09-18T07:01:39;30.70;;;17.65;;
79702;SDS011;69172;52.352;5.006;2023-09-18T07:04:05;27.50;;;17.05;;
79702;SDS011;69172;52.352;5.006;2023-09-18T07:06:31;29.27;;;16.75;;
79702;SDS011;69172;52.352;5.006;2023-09-18T07:08:56;27.65;;;16.55;;
79702;SDS011;69172;52.352;5.006;2023-09-18T07:11:22;25.27;;;15.85;;
79702;SDS011;69172;52.352;5.006;2023-09-18T07:13:49;24.75;;;15.63;;
79702;SDS011;69172;52.352;5.006;2023-09-18T07:16:15;22.38;;;15.13;;
79702;SDS011;69172;52.352;5.006;2023-09-18T07:18:40;23.77;;;15.63;;
79702;SDS011;69172;52.352;5.006;2023-09-18T07:21:06;25.48;;;15.50;;
79702;SDS011;69172;52.352;5.006;2023-09-18T07:23:31;23.73;;;15.30;;
79702;SDS011;69172;52.352;5.006;2023-09-18T07:25:56;24.42;;;13.90;;
79702;SDS011;69172;52.352;5.006;2023-09-18T07:28:24;24.05;;;13.82;;
79702;SDS011;69172;52.352;5.006;2023-09-18T07:30:50;21.90;;;13.00;;
79702;SDS011;69172;52.352;5.006;2023-09-18T07:33:15;21.25;;;12.57;;
79702;SDS011;69172;52.352;5.006;2023-09-18T07:35:45;20.63;;;12.65;;
79702;SDS011;69172;52.352;5.006;2023-09-18T07:38:12;22.23;;;13.32;;
79702;SDS011;69172;52.352;5.006;2023-09-18T07:40:37;21.50;;;12.82;;
79702;SDS011;69172;52.352;5.006;2023-09-18T07:43:03;19.92;;;12.88;;
79702;SDS011;69172;52.352;5.006;2023-09-18T07:45:28;21.70;;;12.43;;
79702;SDS011;69172;52.352;5.006;2023-09-18T07:47:53;20.17;;;12.93;;
79702;SDS011;69172;52.352;5.006;2023-09-18T07:50:19;19.90;;;12.68;;
79702;SDS011;69172;52.352;5.006;2023-09-18T07:52:45;19.90;;;12.65;;
79702;SDS011;69172;52.352;5.006;2023-09-18T07:55:10;19.95;;;12.07;;
79702;SDS011;69172;52.352;5.006;2023-09-18T07:57:37;19.05;;;11.75;;
79702;SDS011;69172;52.352;5.006;2023-09-18T08:00:03;17.38;;;12.07;;
79702;SDS011;69172;52.352;5.006;2023-09-18T08:02:37;17.67;;;10.55;;
79702;SDS011;69172;52.352;5.006;2023-09-18T08:05:03;18.73;;;11.82;;
79702;SDS011;69172;52.352;5.006;2023-09-18T08:07:30;15.00;;;9.90;;
79702;SDS011;69172;52.352;5.006;2023-09-18T08:09:55;16.60;;;10.25;;
79702;SDS011;69172;52.352;5.006;2023-09-18T08:12:21;21.90;;;12.40;;
79702;SDS011;69172;52.352;5.006;2023-09-18T08:14:47;21.42;;;11.05;;
79702;SDS011;69172;52.352;5.006;2023-09-18T08:17:15;18.70;;;9.93;;
79702;SDS011;69172;52.352;5.006;2023-09-18T08:19:40;16.75;;;10.30;;
79702;SDS011;69172;52.352;5.006;2023-09-18T08:22:05;15.45;;;8.50;;
79702;SDS011;69172;52.352;5.006;2023-09-18T08:24:32;15.40;;;8.77;;
79702;SDS011;69172;52.352;5.006;2023-09-18T08:26:57;13.73;;;8.00;;
79702;SDS011;69172;52.352;5.006;2023-09-18T08:29:23;14.50;;;7.75;;
79702;SDS011;69172;52.352;5.006;2023-09-18T08:31:48;13.93;;;7.50;;
79702;SDS011;69172;52.352;5.006;2023-09-18T08:34:16;14.45;;;6.95;;
79702;SDS011;69172;52.352;5.006;2023-09-18T08:36:42;14.65;;;7.15;;
79702;SDS011;69172;52.352;5.006;2023-09-18T08:39:07;13.95;;;6.63;;
79702;SDS011;69172;52.352;5.006;2023-09-18T08:41:33;13.32;;;6.80;;
79702;SDS011;69172;52.352;5.006;2023-09-18T08:44:03;11.95;;;6.55;;
79702;SDS011;69172;52.352;5.006;2023-09-18T08:46:30;12.50;;;6.13;;
79702;SDS011;69172;52.352;5.006;2023-09-18T08:51:45;10.23;;;4.80;;
79702;SDS011;69172;52.352;5.006;2023-09-18T08:54:12;9.40;;;5.15;;
79702;SDS011;69172;52.352;5.006;2023-09-18T08:56:37;13.07;;;5.07;;
79702;SDS011;69172;52.352;5.006;2023-09-18T08:59:03;11.57;;;4.95;;
79702;SDS011;69172;52.352;5.006;2023-09-18T09:01:28;10.57;;;4.70;;
79702;SDS011;69172;52.352;5.006;2023-09-18T09:03:55;10.80;;;4.85;;
79702;SDS011;69172;52.352;5.006;2023-09-18T09:06:20;12.60;;;4.93;;
79702;SDS011;69172;52.352;5.006;2023-09-18T09:08:46;12.65;;;4.50;;
79702;SDS011;69172;52.352;5.006;2023-09-18T09:11:11;8.48;;;4.00;;
79702;SDS011;69172;52.352;5.006;2023-09-18T09:13:36;9.68;;;4.40;;
79702;SDS011;69172;52.352;5.006;2023-09-18T09:16:03;10.45;;;4.22;;
79702;SDS011;69172;52.352;5.006;2023-09-18T09:18:29;9.40;;;4.22;;
79702;SDS011;69172;52.352;5.006;2023-09-18T09:21:00;12.13;;;4.45;;
79702;SDS011;69172;52.352;5.006;2023-09-18T09:23:28;9.52;;;4.05;;
79702;SDS011;69172;52.352;5.006;2023-09-18T09:26:13;9.95;;;4.43;;
79702;SDS011;69172;52.352;5.006;2023-09-18T09:28:43;11.55;;;4.22;;
79702;SDS011;69172;52.352;5.006;2023-09-18T09:31:09;9.35;;;4.63;;
79702;SDS011;69172;52.352;5.006;2023-09-18T09:33:40;8.73;;;3.45;;
79702;SDS011;69172;52.352;5.006;2023-09-18T09:36:18;9.52;;;4.35;;
79702;SDS011;69172;52.352;5.006;2023-09-18T09:38:44;8.75;;;3.88;;
79702;SDS011;69172;52.352;5.006;2023-09-18T09:41:13;8.25;;;3.92;;
79702;SDS011;69172;52.352;5.006;2023-09-18T09:43:39;10.55;;;4.13;;
79702;SDS011;69172;52.352;5.006;2023-09-18T09:46:08;10.50;;;3.47;;
79702;SDS011;69172;52.352;5.006;2023-09-18T09:48:57;7.88;;;3.70;;
79702;SDS011;69172;52.352;5.006;2023-09-18T09:51:24;7.03;;;3.20;;
79702;SDS011;69172;52.352;5.006;2023-09-18T09:53:49;7.90;;;3.10;;
79702;SDS011;69172;52.352;5.006;2023-09-18T09:56:16;13.77;;;3.58;;
79702;SDS011;69172;52.352;5.006;2023-09-18T10:01:34;8.77;;;3.20;;
79702;SDS011;69172;52.352;5.006;2023-09-18T10:04:03;6.68;;;3.03;;
79702;SDS011;69172;52.352;5.006;2023-09-18T10:06:34;8.68;;;3.60;;
79702;SDS011;69172;52.352;5.006;2023-09-18T10:09:02;8.10;;;3.40;;
79702;SDS011;69172;52.352;5.006;2023-09-18T10:11:30;9.88;;;3.20;;
79702;SDS011;69172;52.352;5.006;2023-09-18T10:14:00;7.53;;;3.13;;
79702;SDS011;69172;52.352;5.006;2023-09-18T10:16:32;10.30;;;3.53;;
79702;SDS011;69172;52.352;5.006;2023-09-18T10:24:38;9.43;;;3.10;;
79702;SDS011;69172;52.352;5.006;2023-09-18T10:27:06;6.78;;;3.00;;
79702;SDS011;69172;52.352;5.006;2023-09-18T10:29:35;7.15;;;3.25;;
79702;SDS011;69172;52.352;5.006;2023-09-18T10:32:05;6.22;;;2.80;;
79702;SDS011;69172;52.352;5.006;2023-09-18T10:34:34;8.15;;;2.95;;
79702;SDS011;69172;52.352;5.006;2023-09-18T10:37:01;7.50;;;3.20;;
79702;SDS011;69172;52.352;5.006;2023-09-18T10:39:33;7.50;;;3.03;;
79702;SDS011;69172;52.352;5.006;2023-09-18T10:42:01;7.30;;;3.10;;
79702;SDS011;69172;52.352;5.006;2023-09-18T10:44:28;7.90;;;4.30;;
79702;SDS011;69172;52.352;5.006;2023-09-18T10:46:57;10.50;;;3.35;;
79702;SDS011;69172;52.352;5.006;2023-09-18T10:49:25;8.23;;;3.80;;
79702;SDS011;69172;52.352;5.006;2023-09-18T10:51:53;13.15;;;6.75;;
79702;SDS011;69172;52.352;5.006;2023-09-18T10:54:28;6.63;;;3.47;;
79702;SDS011;69172;52.352;5.006;2023-09-18T10:56:56;7.35;;;3.72;;
79702;SDS011;69172;52.352;5.006;2023-09-18T10:59:22;7.13;;;4.15;;
79702;SDS011;69172;52.352;5.006;2023-09-18T11:01:48;9.27;;;3.33;;
79702;SDS011;69172;52.352;5.006;2023-09-18T11:04:17;8.43;;;3.70;;
79702;SDS011;69172;52.352;5.006;2023-09-18T11:09:28;9.98;;;3.42;;
79702;SDS011;69172;52.352;5.006;2023-09-18T11:12:05;7.00;;;3.67;;
79702;SDS011;69172;52.352;5.006;2023-09-18T11:22:34;9.52;;;4.68;;
79702;SDS011;69172;52.352;5.006;2023-09-18T11:30:21;9.57;;;3.88;;
79702;SDS011;69172;52.352;5.006;2023-09-18T11:32:48;7.15;;;3.90;;
79702;SDS011;69172;52.352;5.006;2023-09-18T11:35:14;9.27;;;3.80;;
79702;SDS011;69172;52.352;5.006;2023-09-18T11:37:42;8.98;;;4.15;;
79702;SDS011;69172;52.352;5.006;2023-09-18T11:40:29;8.13;;;4.35;;
79702;SDS011;69172;52.352;5.006;2023-09-18T11:46:00;8.15;;;3.55;;
79702;SDS011;69172;52.352;5.006;2023-09-18T11:48:29;8.27;;;3.28;;
79702;SDS011;69172;52.352;5.006;2023-09-18T11:50:56;6.70;;;3.03;;
79702;SDS011;69172;52.352;5.006;2023-09-18T11:53:23;7.20;;;3.13;;
79702;SDS011;69172;52.352;5.006;2023-09-18T11:55:49;7.47;;;2.75;;
79702;SDS011;69172;52.352;5.006;2023-09-18T11:58:16;9.15;;;2.90;;
79702;SDS011;69172;52.352;5.006;2023-09-18T12:00:41;7.32;;;3.33;;
79702;SDS011;69172;52.352;5.006;2023-09-18T12:03:17;7.72;;;3.40;;
79702;SDS011;69172;52.352;5.006;2023-09-18T12:05:59;5.53;;;2.90;;
79702;SDS011;69172;52.352;5.006;2023-09-18T12:08:28;7.20;;;2.80;;
79702;SDS011;69172;52.352;5.006;2023-09-18T12:10:56;6.05;;;2.72;;
79702;SDS011;69172;52.352;5.006;2023-09-18T12:13:23;9.02;;;3.38;;
79702;SDS011;69172;52.352;5.006;2023-09-18T12:15:51;8.00;;;3.00;;
79702;SDS011;69172;52.352;5.006;2023-09-18T12:18:22;9.32;;;3.78;;
79702;SDS011;69172;52.352;5.006;2023-09-18T12:20:49;10.00;;;3.63;;
79702;SDS011;69172;52.352;5.006;2023-09-18T12:23:16;8.93;;;3.80;;
79702;SDS011;69172;52.352;5.006;2023-09-18T12:25:46;7.15;;;3.38;;
79702;SDS011;69172;52.352;5.006;2023-09-18T12:28:14;7.57;;;3.28;;
79702;SDS011;69172;52.352;5.006;2023-09-18T12:30:41;9.98;;;3.78;;
79702;SDS011;69172;52.352;5.006;2023-09-18T12:33:08;10.57;;;4.05;;
79702;SDS011;69172;52.352;5.006;2023-09-18T12:35:34;9.32;;;3.83;;
79702;SDS011;69172;52.352;5.006;2023-09-18T12:38:00;8.35;;;4.25;;
79702;SDS011;69172;52.352;5.006;2023-09-18T12:40:30;7.95;;;4.20;;
79702;SDS011;69172;52.352;5.006;2023-09-18T12:42:58;8.60;;;3.92;;
79702;SDS011;69172;52.352;5.006;2023-09-18T12:45:24;9.05;;;3.65;;
79702;SDS011;69172;52.352;5.006;2023-09-18T12:47:53;13.10;;;6.78;;
79702;SDS011;69172;52.352;5.006;2023-09-18T12:50:20;7.53;;;3.60;;
79702;SDS011;69172;52.352;5.006;2023-09-18T12:52:46;28.23;;;17.88;;
79702;SDS011;69172;52.352;5.006;2023-09-18T12:55:24;11.48;;;3.95;;
79702;SDS011;69172;52.352;5.006;2023-09-18T12:57:53;8.88;;;3.47;;
79702;SDS011;69172;52.352;5.006;2023-09-18T13:00:19;7.45;;;2.88;;
79702;SDS011;69172;52.352;5.006;2023-09-18T13:02:48;8.85;;;3.53;;
79702;SDS011;69172;52.352;5.006;2023-09-18T13:05:20;9.38;;;3.80;;
79702;SDS011;69172;52.352;5.006;2023-09-18T13:07:47;10.95;;;3.42;;
79702;SDS011;69172;52.352;5.006;2023-09-18T13:10:15;7.70;;;3.20;;
79702;SDS011;69172;52.352;5.006;2023-09-18T13:12:49;6.63;;;3.10;;
79702;SDS011;69172;52.352;5.006;2023-09-18T13:15:31;10.70;;;3.40;;
79702;SDS011;69172;52.352;5.006;2023-09-18T13:17:58;7.90;;;3.78;;
79702;SDS011;69172;52.352;5.006;2023-09-18T13:20:27;9.50;;;3.60;;
79702;SDS011;69172;52.352;5.006;2023-09-18T13:22:55;8.25;;;3.47;;
79702;SDS011;69172;52.352;5.006;2023-09-18T13:25:22;8.68;;;3.22;;
79702;SDS011;69172;52.352;5.006;2023-09-18T13:27:49;7.47;;;3.05;;
79702;SDS011;69172;52.352;5.006;2023-09-18T13:30:18;8.95;;;3.40;;
79702;SDS011;69172;52.352;5.006;2023-09-18T13:32:45;7.90;;;3.55;;
79702;SDS011;69172;52.352;5.006;2023-09-18T13:35:13;8.38;;;3.40;;
79702;SDS011;69172;52.352;5.006;2023-09-18T13:37:39;7.53;;;3.20;;
79702;SDS011;69172;52.352;5.006;2023-09-18T13:40:05;9.10;;;3.05;;
79702;SDS011;69172;52.352;5.006;2023-09-18T13:42:32;8.30;;;3.67;;
79702;SDS011;69172;52.352;5.006;2023-09-18T13:44:58;6.68;;;2.75;;
79702;SDS011;69172;52.352;5.006;2023-09-18T13:47:27;6.25;;;2.90;;
79702;SDS011;69172;52.352;5.006;2023-09-18T13:49:54;8.00;;;3.05;;
79702;SDS011;69172;52.352;5.006;2023-09-18T13:52:28;8.10;;;3.03;;
79702;SDS011;69172;52.352;5.006;2023-09-18T13:54:54;7.03;;;2.83;;
79702;SDS011;69172;52.352;5.006;2023-09-18T13:57:20;6.30;;;2.60;;
79702;SDS011;69172;52.352;5.006;2023-09-18T13:59:46;9.35;;;3.17;;
79702;SDS011;69172;52.352;5.006;2023-09-18T14:02:13;9.25;;;2.95;;
79702;SDS011;69172;52.352;5.006;2023-09-18T14:04:39;7.22;;;3.10;;
79702;SDS011;69172;52.352;5.006;2023-09-18T14:07:08;7.68;;;2.70;;
79702;SDS011;69172;52.352;5.006;2023-09-18T14:09:36;8.35;;;3.00;;
79702;SDS011;69172;52.352;5.006;2023-09-18T14:12:02;6.22;;;2.72;;
79702;SDS011;69172;52.352;5.006;2023-09-18T14:14:32;8.35;;;2.85;;
79702;SDS011;69172;52.352;5.006;2023-09-18T14:16:58;7.60;;;2.72;;
79702;SDS011;69172;52.352;5.006;2023-09-18T14:19:23;6.13;;;2.70;;
79702;SDS011;69172;52.352;5.006;2023-09-18T14:21:49;7.18;;;2.67;;
79702;SDS011;69172;52.352;5.006;2023-09-18T14:24:15;6.03;;;2.42;;
79702;SDS011;69172;52.352;5.006;2023-09-18T14:26:43;7.25;;;3.28;;
79702;SDS011;69172;52.352;5.006;2023-09-18T14:29:10;6.82;;;2.72;;
79702;SDS011;69172;52.352;5.006;2023-09-18T14:31:39;9.40;;;3.35;;
79702;SDS011;69172;52.352;5.006;2023-09-18T14:34:05;8.90;;;3.58;;
79702;SDS011;69172;52.352;5.006;2023-09-18T14:36:31;9.77;;;4.00;;
79702;SDS011;69172;52.352;5.006;2023-09-18T14:38:58;9.05;;;4.00;;
79702;SDS011;69172;52.352;5.006;2023-09-18T14:41:25;7.35;;;3.63;;
79702;SDS011;69172;52.352;5.006;2023-09-18T14:43:51;10.13;;;4.88;;
79702;SDS011;69172;52.352;5.006;2023-09-18T14:46:24;13.13;;;4.78;;
79702;SDS011;69172;52.352;5.006;2023-09-18T14:48:49;10.77;;;4.15;;
79702;SDS011;69172;52.352;5.006;2023-09-18T14:51:15;8.05;;;3.70;;
79702;SDS011;69172;52.352;5.006;2023-09-18T14:53:42;9.77;;;3.92;;
79702;SDS011;69172;52.352;5.006;2023-09-18T14:56:08;10.52;;;4.05;;
79702;SDS011;69172;52.352;5.006;2023-09-18T14:58:33;9.15;;;3.90;;
79702;SDS011;69172;52.352;5.006;2023-09-18T15:00:59;8.98;;;4.47;;
79702;SDS011;69172;52.352;5.006;2023-09-18T15:03:25;8.25;;;3.58;;